createdAt,value
2022-12-16T00:00:01.577Z,10.28
2022-12-16T00:02:29.966Z,9.29
2022-12-16T00:04:58.762Z,10.38
2022-12-16T00:07:27.115Z,10.27
2022-12-16T00:09:55.392Z,9.96
2022-12-16T00:12:23.712Z,9.78
2022-12-16T00:14:52.054Z,10.10
2022-12-16T00:17:21.767Z,10.06
2022-12-16T00:19:50.049Z,10.17
2022-12-16T00:22:21.765Z,10.07
2022-12-16T00:24:50.007Z,10.24
2022-12-16T00:27:18.774Z,9.51
2022-12-16T00:29:47.220Z,9.52
2022-12-16T00:32:15.482Z,9.73
2022-12-16T00:34:45.088Z,9.96
2022-12-16T00:37:14.343Z,9.61
2022-12-16T00:39:42.621Z,9.15
2022-12-16T00:42:10.872Z,9.23
2022-12-16T00:44:39.179Z,9.41
2022-12-16T00:47:07.423Z,9.92
2022-12-16T00:49:35.970Z,9.83
2022-12-16T00:52:06.057Z,9.73
2022-12-16T00:54:34.293Z,9.62
2022-12-16T00:57:02.554Z,9.75
2022-12-16T00:59:30.882Z,8.71
2022-12-16T01:01:59.316Z,9.47
2022-12-16T01:04:28.891Z,9.94
2022-12-16T01:06:57.324Z,8.97
2022-12-16T01:09:27.166Z,9.98
2022-12-16T01:11:55.671Z,10.07
2022-12-16T01:14:23.998Z,10.11
2022-12-16T01:16:52.171Z,10.10
2022-12-16T01:19:23.594Z,9.96
2022-12-16T01:21:51.845Z,10.16
2022-12-16T01:24:23.537Z,10.36
2022-12-16T01:26:53.200Z,10.11
2022-12-16T01:29:21.681Z,10.06
2022-12-16T01:31:50.103Z,9.75
2022-12-16T01:34:18.399Z,9.54
2022-12-16T01:36:46.666Z,9.54
2022-12-16T01:39:14.934Z,9.89
2022-12-16T01:41:43.246Z,10.00
2022-12-16T01:44:17.889Z,9.91
2022-12-16T01:46:51.120Z,10.01
2022-12-16T01:49:26.469Z,9.49
2022-12-16T01:51:57.740Z,9.90
2022-12-16T01:54:31.172Z,9.63
2022-12-16T01:57:05.146Z,9.59
2022-12-16T01:59:37.233Z,9.84
2022-12-16T02:02:06.370Z,9.90
2022-12-16T02:04:34.835Z,9.56
2022-12-16T02:07:03.342Z,9.21
2022-12-16T02:09:31.711Z,8.43
2022-12-16T02:12:20.855Z,9.70
2022-12-16T02:15:08.925Z,9.61
2022-12-16T02:17:43.075Z,9.79
2022-12-16T02:20:32.538Z,9.31
2022-12-16T02:23:24.037Z,9.70
2022-12-16T02:26:12.765Z,9.08
2022-12-16T02:29:02.339Z,10.23
2022-12-16T02:31:39.407Z,9.50
2022-12-16T02:34:14.887Z,9.83
2022-12-16T02:36:56.835Z,9.19
2022-12-16T02:39:31.446Z,9.97
2022-12-16T02:42:08.425Z,10.06
2022-12-16T02:44:46.118Z,9.42
2022-12-16T02:47:16.009Z,10.09
2022-12-16T02:49:48.507Z,10.05
2022-12-16T02:52:19.012Z,9.47
2022-12-16T02:54:48.058Z,9.50
2022-12-16T02:57:43.925Z,9.40
2022-12-16T03:00:15.392Z,9.95
2022-12-16T03:02:55.475Z,9.83
2022-12-16T03:05:28.376Z,10.12
2022-12-16T03:07:59.496Z,9.78
2022-12-16T03:10:31.298Z,9.98
2022-12-16T03:13:02.776Z,10.11
2022-12-16T03:15:34.982Z,9.93
2022-12-16T03:18:09.310Z,9.78
2022-12-16T03:20:43.645Z,10.07
2022-12-16T03:23:15.566Z,10.11
2022-12-16T03:25:46.909Z,9.84
2022-12-16T03:28:32.547Z,9.95
2022-12-16T03:31:08.296Z,9.90
2022-12-16T03:33:44.083Z,9.94
2022-12-16T03:36:15.982Z,10.10
2022-12-16T03:38:46.182Z,10.07
2022-12-16T03:41:15.967Z,10.10
2022-12-16T03:43:45.050Z,10.28
2022-12-16T03:46:14.286Z,9.60
2022-12-16T03:48:48.959Z,10.02
2022-12-16T03:51:17.301Z,9.94
2022-12-16T03:53:45.885Z,9.83
2022-12-16T03:56:14.970Z,9.81
2022-12-16T03:58:43.282Z,9.79
2022-12-16T04:01:12.076Z,10.13
2022-12-16T04:03:40.552Z,9.90
2022-12-16T04:06:10.445Z,10.03
2022-12-16T04:08:38.781Z,10.07
2022-12-16T04:11:24.914Z,10.04
2022-12-16T04:14:10.315Z,9.29
2022-12-16T04:16:55.859Z,9.55
2022-12-16T04:19:44.913Z,9.78
2022-12-16T04:22:37.031Z,9.97
2022-12-16T04:25:09.431Z,9.46
2022-12-16T04:27:37.772Z,8.52
2022-12-16T04:30:22.352Z,9.26
2022-12-16T04:33:12.256Z,9.36
2022-12-16T04:35:58.132Z,8.77
2022-12-16T04:38:45.324Z,10.08
2022-12-16T04:41:31.186Z,10.08
2022-12-16T04:44:17.279Z,10.10
2022-12-16T04:47:02.657Z,10.01
2022-12-16T04:49:48.576Z,10.02
2022-12-16T04:52:35.145Z,10.04
2022-12-16T04:55:22.224Z,10.17
2022-12-16T04:58:09.235Z,10.16
2022-12-16T05:00:55.765Z,10.02
2022-12-16T05:03:41.828Z,9.73
2022-12-16T05:06:32.730Z,9.31
2022-12-16T05:09:18.752Z,8.73
2022-12-16T05:12:05.985Z,9.26
2022-12-16T05:14:51.415Z,9.26
2022-12-16T05:17:37.432Z,9.04
2022-12-16T05:20:24.542Z,9.52
2022-12-16T05:23:10.007Z,9.58
2022-12-16T05:25:55.437Z,9.74
2022-12-16T05:28:45.121Z,9.84
2022-12-16T05:31:30.482Z,9.92
2022-12-16T05:34:16.051Z,9.92
2022-12-16T05:37:01.325Z,9.73
2022-12-16T05:39:46.817Z,9.89
2022-12-16T05:42:32.227Z,9.61
2022-12-16T05:45:19.369Z,9.35
2022-12-16T05:48:08.426Z,9.55
2022-12-16T05:50:55.633Z,9.16
2022-12-16T05:53:49.570Z,9.46
2022-12-16T05:56:35.054Z,9.34
2022-12-16T05:59:21.015Z,9.22
2022-12-16T06:02:08.255Z,9.45
2022-12-16T06:04:53.714Z,9.52
2022-12-16T06:07:39.223Z,9.67
2022-12-16T06:10:25.327Z,9.87
2022-12-16T06:13:10.730Z,9.98
2022-12-16T06:15:56.365Z,9.78
2022-12-16T06:18:43.504Z,9.68
2022-12-16T06:21:28.986Z,9.97
2022-12-16T06:24:14.531Z,10.00
2022-12-16T06:26:59.952Z,9.71
2022-12-16T06:29:48.412Z,8.90
2022-12-16T06:32:33.959Z,9.67
2022-12-16T06:35:21.059Z,9.66
2022-12-16T06:38:06.922Z,9.12
2022-12-16T06:40:52.886Z,9.45
2022-12-16T06:43:40.761Z,9.58
2022-12-16T06:46:26.286Z,9.83
2022-12-16T06:49:11.852Z,9.57
2022-12-16T06:51:58.928Z,9.50
2022-12-16T06:54:44.388Z,9.73
2022-12-16T06:57:29.865Z,10.13
2022-12-16T07:00:15.269Z,10.24
2022-12-16T07:03:00.957Z,9.51
2022-12-16T07:05:46.342Z,9.64
2022-12-16T07:08:33.678Z,9.99
2022-12-16T07:11:19.094Z,9.65
2022-12-16T07:14:04.547Z,9.96
2022-12-16T07:16:50.184Z,9.65
2022-12-16T07:19:35.585Z,9.62
2022-12-16T07:22:20.955Z,9.66
2022-12-16T07:25:08.104Z,9.79
2022-12-16T07:27:53.507Z,9.93
2022-12-16T07:30:38.958Z,9.67
2022-12-16T07:33:24.338Z,9.35
2022-12-16T07:36:10.971Z,9.55
2022-12-16T07:38:56.516Z,9.25
2022-12-16T07:41:43.571Z,9.85
2022-12-16T07:44:29.006Z,9.91
2022-12-16T07:47:14.392Z,10.01
2022-12-16T07:49:59.989Z,9.83
2022-12-16T07:52:45.458Z,9.84
2022-12-16T07:55:30.847Z,9.91
2022-12-16T07:58:18.086Z,9.78
2022-12-16T08:01:07.812Z,10.10
2022-12-16T08:03:55.336Z,10.19
2022-12-16T08:06:41.786Z,10.40
2022-12-16T08:09:41.838Z,10.42
2022-12-16T08:12:27.316Z,10.12
2022-12-16T08:15:14.353Z,10.30
2022-12-16T08:18:06.630Z,10.37
2022-12-16T08:20:52.290Z,10.26
2022-12-16T08:23:41.222Z,10.41
2022-12-16T08:26:27.170Z,10.37
2022-12-16T08:29:42.127Z,10.32
2022-12-16T08:32:19.674Z,10.59
2022-12-16T08:35:05.085Z,10.27
2022-12-16T08:37:50.625Z,10.01
2022-12-16T08:40:37.046Z,10.22
2022-12-16T08:43:23.279Z,10.31
2022-12-16T08:46:12.982Z,10.30
2022-12-16T08:49:00.212Z,10.38
2022-12-16T08:51:46.174Z,10.50
2022-12-16T08:54:31.665Z,10.48
2022-12-16T08:57:17.093Z,10.38
2022-12-16T09:00:02.752Z,10.38
2022-12-16T09:02:48.447Z,10.65
2022-12-16T09:05:35.361Z,10.38
2022-12-16T09:08:22.257Z,10.89
2022-12-16T09:11:08.233Z,11.01
2022-12-16T09:13:53.721Z,10.60
2022-12-16T09:16:40.332Z,10.40
2022-12-16T09:19:26.572Z,10.22
2022-12-16T09:22:13.709Z,10.39
2022-12-16T09:24:59.170Z,10.84
2022-12-16T09:27:44.568Z,10.65
2022-12-16T09:30:30.567Z,10.67
2022-12-16T09:33:16.106Z,10.60
2022-12-16T09:36:01.413Z,10.87
2022-12-16T09:38:48.590Z,11.25
2022-12-16T09:41:47.164Z,10.69
2022-12-16T09:44:42.181Z,11.34
2022-12-16T09:47:36.959Z,10.94
2022-12-16T09:50:23.630Z,11.17
2022-12-16T09:53:15.122Z,11.56
2022-12-16T09:56:04.311Z,11.09
2022-12-16T09:58:56.226Z,11.42
2022-12-16T10:01:43.551Z,11.05
2022-12-16T10:04:31.823Z,10.95
2022-12-16T10:07:18.695Z,10.93
2022-12-16T10:10:16.724Z,11.37
2022-12-16T10:13:11.377Z,11.46
2022-12-16T10:16:06.437Z,11.81
2022-12-16T10:19:02.342Z,11.42
2022-12-16T10:21:54.111Z,11.05
2022-12-16T10:24:53.947Z,11.53
2022-12-16T10:27:49.577Z,11.60
2022-12-16T10:30:36.729Z,11.80
2022-12-16T10:33:27.698Z,11.20
2022-12-16T10:36:14.558Z,11.16
2022-12-16T10:39:03.465Z,10.90
2022-12-16T10:41:52.852Z,11.01
2022-12-16T10:44:43.407Z,10.08
2022-12-16T10:47:31.113Z,10.97
2022-12-16T10:50:17.545Z,10.19
2022-12-16T10:53:12.486Z,10.77
2022-12-16T10:56:10.682Z,11.07
2022-12-16T10:59:05.392Z,11.40
2022-12-16T11:01:51.029Z,11.56
2022-12-16T11:04:55.928Z,11.41
2022-12-16T11:07:52.620Z,11.37
2022-12-16T11:10:56.414Z,11.56
2022-12-16T11:13:44.927Z,11.49
2022-12-16T11:16:38.182Z,11.34
2022-12-16T11:19:48.901Z,11.13
2022-12-16T11:22:38.376Z,10.51
2022-12-16T11:25:28.831Z,10.55
2022-12-16T11:28:22.534Z,11.01
2022-12-16T11:31:15.078Z,11.40
2022-12-16T11:34:02.446Z,11.64
2022-12-16T11:36:51.485Z,11.40
2022-12-16T11:39:41.482Z,10.95
2022-12-16T11:42:34.920Z,11.29
2022-12-16T11:45:23.387Z,11.37
2022-12-16T11:48:14.051Z,11.53
2022-12-16T11:51:08.085Z,11.56
2022-12-16T11:54:03.320Z,11.46
2022-12-16T11:56:53.789Z,11.53
2022-12-16T11:59:45.485Z,11.36
2022-12-16T12:02:35.452Z,11.45
2022-12-16T12:05:21.191Z,11.10
2022-12-16T12:08:14.438Z,11.17
2022-12-16T12:11:11.332Z,11.36
2022-12-16T12:14:18.348Z,11.90
2022-12-16T12:17:18.467Z,12.18
2022-12-16T12:20:19.473Z,11.94
2022-12-16T12:23:05.515Z,11.59
2022-12-16T12:25:59.216Z,11.68
2022-12-16T12:28:58.846Z,11.41
2022-12-16T12:31:57.629Z,11.81
2022-12-16T12:34:52.337Z,12.15
2022-12-16T12:37:45.063Z,12.09
2022-12-16T12:40:50.113Z,11.91
2022-12-16T12:43:51.449Z,11.14
2022-12-16T12:46:47.657Z,11.87
2022-12-16T12:49:42.029Z,11.68
2022-12-16T12:52:39.643Z,12.03
2022-12-16T12:55:34.126Z,12.19
2022-12-16T12:58:21.448Z,12.22
2022-12-16T13:01:11.028Z,12.00
2022-12-16T13:04:01.801Z,12.19
2022-12-16T13:07:04.158Z,11.97
2022-12-16T13:09:51.627Z,11.94
2022-12-16T13:12:49.262Z,11.99
2022-12-16T13:15:51.333Z,12.24
2022-12-16T13:18:47.455Z,11.89
2022-12-16T13:22:08.252Z,12.11
2022-12-16T13:25:04.110Z,12.45
2022-12-16T13:28:06.141Z,12.10
2022-12-16T13:30:53.005Z,12.13
2022-12-16T13:33:47.102Z,12.30
2022-12-16T13:36:35.143Z,12.35
2022-12-16T13:39:39.937Z,12.08
2022-12-16T13:42:45.682Z,11.74
2022-12-16T13:45:58.042Z,11.91
2022-12-16T13:48:58.953Z,12.20
2022-12-16T13:52:17.323Z,12.07
2022-12-16T13:55:10.901Z,11.93
2022-12-16T13:58:00.822Z,11.87
2022-12-16T14:00:47.944Z,11.43
2022-12-16T14:03:44.036Z,11.52
2022-12-16T14:06:36.637Z,11.06
2022-12-16T14:09:23.662Z,11.03
2022-12-16T14:12:19.309Z,11.05
2022-12-16T14:15:19.205Z,11.28
2022-12-16T14:18:13.338Z,11.19
2022-12-16T14:21:06.086Z,11.23
2022-12-16T14:24:00.192Z,10.81
2022-12-16T14:26:46.931Z,10.88
2022-12-16T14:29:40.837Z,11.26
2022-12-16T14:32:44.571Z,11.16
2022-12-16T14:35:32.979Z,11.35
2022-12-16T14:38:38.998Z,10.95
2022-12-16T14:41:26.404Z,11.10
2022-12-16T14:44:12.451Z,11.10
2022-12-16T14:46:59.550Z,11.31
2022-12-16T14:49:47.111Z,11.44
2022-12-16T14:52:43.135Z,11.40
2022-12-16T14:55:34.636Z,11.36
2022-12-16T14:58:22.614Z,11.25
2022-12-16T15:01:13.944Z,11.51
2022-12-16T15:04:08.833Z,11.64
2022-12-16T15:06:59.457Z,11.65
2022-12-16T15:09:48.953Z,11.55
2022-12-16T15:12:38.990Z,11.60
2022-12-16T15:15:28.297Z,11.70
2022-12-16T15:18:16.147Z,11.52
2022-12-16T15:21:09.426Z,11.58
2022-12-16T15:23:58.730Z,11.67
2022-12-16T15:26:46.209Z,11.47
2022-12-16T15:29:47.580Z,11.43
2022-12-16T15:32:48.131Z,11.46
2022-12-16T15:35:44.172Z,11.47
2022-12-16T15:38:36.899Z,11.42
2022-12-16T15:41:24.735Z,11.64
2022-12-16T15:44:10.800Z,11.54
2022-12-16T15:46:56.782Z,11.59
2022-12-16T15:49:52.819Z,11.21
2022-12-16T15:52:50.908Z,11.24
2022-12-16T15:55:48.344Z,11.45
2022-12-16T15:58:39.907Z,11.53
2022-12-16T16:01:26.915Z,11.52
2022-12-16T16:04:15.087Z,11.59
2022-12-16T16:07:04.680Z,11.54
2022-12-16T16:09:54.890Z,11.51
2022-12-16T16:12:43.409Z,11.41
2022-12-16T16:15:31.277Z,11.42
2022-12-16T16:18:18.563Z,11.26
2022-12-16T16:21:04.645Z,11.34
2022-12-16T16:23:50.586Z,11.30
2022-12-16T16:26:39.020Z,11.33
2022-12-16T16:29:30.371Z,11.04
2022-12-16T16:32:15.960Z,11.23
2022-12-16T16:35:01.521Z,11.34
2022-12-16T16:37:46.910Z,11.20
2022-12-16T16:40:37.626Z,11.32
2022-12-16T16:43:23.524Z,11.28
2022-12-16T16:46:12.661Z,11.20
2022-12-16T16:48:58.554Z,11.32
2022-12-16T16:51:45.622Z,11.37
2022-12-16T16:54:31.198Z,11.31
2022-12-16T16:57:19.869Z,11.31
2022-12-16T17:00:05.475Z,11.31
2022-12-16T17:02:52.669Z,11.32
2022-12-16T17:05:38.561Z,11.43
2022-12-16T17:08:32.573Z,11.46
2022-12-16T17:11:32.742Z,11.29
2022-12-16T17:14:18.515Z,11.28
2022-12-16T17:17:06.675Z,11.45
2022-12-16T17:19:53.831Z,11.32
2022-12-16T17:22:39.192Z,10.98
2022-12-16T17:25:25.815Z,11.13
2022-12-16T17:28:11.142Z,11.28
2022-12-16T17:30:56.839Z,11.12
2022-12-16T17:33:42.353Z,11.02
2022-12-16T17:36:36.864Z,11.10
2022-12-16T17:39:23.721Z,11.36
2022-12-16T17:42:09.623Z,11.34
2022-12-16T17:44:58.160Z,11.34
2022-12-16T17:47:43.691Z,11.13
2022-12-16T17:50:29.680Z,11.25
2022-12-16T17:53:17.872Z,11.29
2022-12-16T17:56:03.712Z,11.33
2022-12-16T17:58:50.562Z,11.03
2022-12-16T18:01:36.743Z,10.87
2022-12-16T18:04:23.006Z,10.76
2022-12-16T18:07:08.587Z,10.50
2022-12-16T18:09:55.686Z,10.52
2022-12-16T18:12:42.114Z,10.88
2022-12-16T18:15:28.613Z,10.60
2022-12-16T18:18:14.576Z,11.01
2022-12-16T18:21:00.133Z,10.80
2022-12-16T18:23:48.136Z,10.60
2022-12-16T18:26:35.499Z,10.77
2022-12-16T18:29:20.891Z,10.81
2022-12-16T18:32:06.871Z,10.62
2022-12-16T18:34:52.861Z,10.85
2022-12-16T18:37:38.204Z,11.16
2022-12-16T18:40:25.273Z,11.04
2022-12-16T18:43:12.355Z,11.04
2022-12-16T18:45:57.842Z,10.83
2022-12-16T18:48:43.465Z,10.90
2022-12-16T18:51:28.905Z,10.84
2022-12-16T18:54:14.690Z,10.98
2022-12-16T18:57:00.158Z,11.03
2022-12-16T18:59:47.263Z,10.88
2022-12-16T19:02:33.001Z,10.52
2022-12-16T19:05:18.711Z,11.02
2022-12-16T19:08:04.083Z,10.79
2022-12-16T19:10:49.615Z,10.82
2022-12-16T19:13:34.970Z,10.95
2022-12-16T19:16:22.102Z,10.64
2022-12-16T19:19:07.465Z,10.93
2022-12-16T19:21:56.360Z,11.04
2022-12-16T19:24:42.516Z,11.12
2022-12-16T19:27:27.956Z,11.13
2022-12-16T19:30:13.514Z,11.09
2022-12-16T19:33:00.816Z,11.00
2022-12-16T19:35:46.137Z,11.13
2022-12-16T19:38:32.136Z,11.19
2022-12-16T19:41:18.153Z,11.04
2022-12-16T19:47:09.553Z,10.63
2022-12-16T19:49:56.585Z,10.77
2022-12-16T19:52:42.499Z,10.53
2022-12-16T19:55:27.927Z,10.47
2022-12-16T19:58:13.878Z,10.78
2022-12-16T20:00:59.856Z,10.90
2022-12-16T20:03:46.025Z,10.81
2022-12-16T20:06:33.425Z,10.81
2022-12-16T20:09:18.894Z,11.11
2022-12-16T20:12:04.528Z,10.89
2022-12-16T20:14:50.329Z,10.80
2022-12-16T20:17:37.528Z,10.89
2022-12-16T20:20:24.085Z,11.05
2022-12-16T20:23:13.919Z,11.27
2022-12-16T20:25:59.264Z,11.14
2022-12-16T20:28:44.822Z,10.95
2022-12-16T20:31:30.382Z,11.11
2022-12-16T20:34:16.401Z,11.14
2022-12-16T20:37:01.983Z,10.77
2022-12-16T20:39:57.597Z,10.68
2022-12-16T20:42:42.966Z,10.88
2022-12-16T20:45:28.927Z,10.99
2022-12-16T20:48:14.530Z,11.13
2022-12-16T20:51:00.027Z,10.99
2022-12-16T20:53:45.530Z,11.13
2022-12-16T20:56:32.599Z,11.18
2022-12-16T20:59:18.081Z,11.03
2022-12-16T21:05:12.505Z,10.89
2022-12-16T21:07:57.995Z,10.91
2022-12-16T21:10:43.908Z,10.69
2022-12-16T21:13:33.645Z,11.12
2022-12-16T21:16:22.801Z,10.87
2022-12-16T21:19:08.199Z,10.79
2022-12-16T21:21:55.179Z,10.75
2022-12-16T21:24:42.587Z,10.83
2022-12-16T21:27:28.116Z,10.77
2022-12-16T21:30:15.334Z,10.63
2022-12-16T21:33:00.856Z,10.45
2022-12-16T21:35:46.266Z,10.81
2022-12-16T21:38:32.296Z,11.00
2022-12-16T21:41:17.799Z,10.89
2022-12-16T21:44:03.104Z,11.12
2022-12-16T21:46:50.333Z,11.14
2022-12-16T21:49:35.728Z,11.05
2022-12-16T21:52:21.336Z,11.20
2022-12-16T21:55:06.895Z,10.93
2022-12-16T21:57:53.263Z,11.03
2022-12-16T22:00:39.054Z,9.87
2022-12-16T22:03:26.238Z,11.14
2022-12-16T22:06:11.654Z,10.71
2022-12-16T22:08:57.271Z,11.11
2022-12-16T22:11:42.557Z,11.18
2022-12-16T22:14:28.259Z,10.69
2022-12-16T22:17:13.785Z,10.70
2022-12-16T22:20:01.154Z,11.20
2022-12-16T22:22:46.807Z,10.92
2022-12-16T22:25:32.729Z,11.03
2022-12-16T22:28:18.119Z,10.70
2022-12-16T22:31:03.600Z,10.79
2022-12-16T22:33:49.356Z,10.80
2022-12-16T22:36:36.783Z,10.72
2022-12-16T22:39:22.735Z,11.00
2022-12-16T22:42:09.381Z,11.18
2022-12-16T22:44:56.521Z,11.25
2022-12-16T22:47:42.256Z,10.78
2022-12-16T22:50:28.143Z,11.38
2022-12-16T22:53:15.438Z,11.37
2022-12-16T22:56:02.227Z,11.33
2022-12-16T22:58:48.067Z,10.03
2022-12-16T23:01:33.827Z,11.20
2022-12-16T23:04:19.732Z,11.25
2022-12-16T23:07:05.282Z,10.96
2022-12-16T23:09:53.286Z,11.26
2022-12-16T23:12:39.942Z,10.52
2022-12-16T23:15:27.969Z,10.86
2022-12-16T23:18:13.719Z,11.04
2022-12-16T23:21:05.208Z,10.29
2022-12-16T23:23:51.079Z,10.71
2022-12-16T23:26:39.965Z,11.12
2022-12-16T23:29:25.381Z,11.12
2022-12-16T23:32:10.785Z,10.91
2022-12-16T23:35:05.186Z,10.91
2022-12-16T23:37:50.720Z,10.68
2022-12-16T23:40:36.291Z,11.03
2022-12-16T23:43:23.430Z,10.89
2022-12-16T23:46:08.928Z,10.37
2022-12-16T23:48:55.567Z,10.96
2022-12-16T23:51:41.025Z,10.71
2022-12-16T23:54:26.611Z,11.29
2022-12-16T23:57:11.946Z,11.28
2022-12-16T23:59:59.024Z,11.26
